createdAt,value
2023-03-11T00:03:38.421Z,3.30
2023-03-11T00:08:40.428Z,3.32
2023-03-11T00:13:41.990Z,3.18
2023-03-11T00:18:43.666Z,3.11
2023-03-11T00:23:46.382Z,3.16
2023-03-11T00:28:48.050Z,3.09
2023-03-11T00:33:49.591Z,2.95
2023-03-11T00:38:51.921Z,3.09
2023-03-11T00:43:53.985Z,2.70
2023-03-11T00:48:56.125Z,2.69
2023-03-11T00:53:57.985Z,2.64
2023-03-11T00:58:59.767Z,2.80
2023-03-11T01:04:01.655Z,2.87
2023-03-11T01:09:05.180Z,2.86
2023-03-11T01:14:08.014Z,2.88
2023-03-11T01:19:09.662Z,2.89
2023-03-11T01:24:11.245Z,2.91
2023-03-11T01:29:13.124Z,2.81
2023-03-11T01:34:17.083Z,2.99
2023-03-11T01:39:18.683Z,2.98
2023-03-11T01:44:20.250Z,3.05
2023-03-11T01:49:23.537Z,3.07
2023-03-11T01:54:33.487Z,3.12
2023-03-11T01:59:44.960Z,3.05
2023-03-11T02:04:48.780Z,2.99
2023-03-11T02:09:51.127Z,3.02
2023-03-11T02:14:53.925Z,2.94
2023-03-11T02:19:59.326Z,2.92
2023-03-11T02:25:23.157Z,2.90
2023-03-11T02:30:27.217Z,2.92
2023-03-11T02:35:31.127Z,2.90
2023-03-11T02:40:39.265Z,2.94
2023-03-11T02:45:43.819Z,2.92
2023-03-11T02:50:46.483Z,2.80
2023-03-11T02:55:49.265Z,2.71
2023-03-11T03:00:51.233Z,2.71
2023-03-11T03:05:54.156Z,2.59
2023-03-11T03:10:56.238Z,2.65
2023-03-11T03:15:59.546Z,2.55
2023-03-11T03:21:02.200Z,2.45
2023-03-11T03:26:05.710Z,2.37
2023-03-11T03:31:11.987Z,2.31
2023-03-11T03:36:16.348Z,2.15
2023-03-11T03:41:23.604Z,2.09
2023-03-11T03:46:26.540Z,1.99
2023-03-11T03:51:32.063Z,1.95
2023-03-11T03:56:40.965Z,1.74
2023-03-11T04:01:43.711Z,1.72
2023-03-11T04:06:45.671Z,1.71
2023-03-11T04:11:48.190Z,1.64
2023-03-11T04:16:53.517Z,1.54
2023-03-11T04:21:56.173Z,1.60
2023-03-11T04:27:00.961Z,1.62
2023-03-11T04:32:07.665Z,1.52
2023-03-11T04:37:11.256Z,1.69
2023-03-11T04:42:13.563Z,1.65
2023-03-11T04:47:17.746Z,1.51
2023-03-11T04:52:19.837Z,1.57
2023-03-11T04:57:22.586Z,1.48
2023-03-11T05:02:25.376Z,1.32
2023-03-11T05:07:32.493Z,1.21
2023-03-11T05:12:35.458Z,1.03
2023-03-11T05:17:38.289Z,0.96
2023-03-11T05:22:41.382Z,1.05
2023-03-11T05:27:46.173Z,1.13
2023-03-11T05:32:49.620Z,1.12
2023-03-11T05:37:53.118Z,1.15
2023-03-11T05:42:54.718Z,1.24
2023-03-11T05:47:57.091Z,1.39
2023-03-11T05:52:59.557Z,1.31
2023-03-11T05:58:04.828Z,1.45
2023-03-11T06:03:07.413Z,1.47
2023-03-11T06:08:12.493Z,1.47
2023-03-11T06:13:15.890Z,1.31
2023-03-11T06:18:23.497Z,1.30
2023-03-11T06:23:26.746Z,1.29
2023-03-11T06:28:30.476Z,1.48
2023-03-11T06:33:32.666Z,1.80
2023-03-11T06:38:37.429Z,2.34
2023-03-11T06:43:40.951Z,2.83
2023-03-11T06:48:43.595Z,3.36
2023-03-11T06:53:49.152Z,3.62
2023-03-11T06:58:54.509Z,3.48
2023-03-11T07:03:57.925Z,3.12
2023-03-11T07:09:01.688Z,2.95
2023-03-11T07:14:06.218Z,3.13
2023-03-11T07:19:12.542Z,3.13
2023-03-11T07:24:15.262Z,3.27
2023-03-11T07:29:17.659Z,3.43
2023-03-11T07:34:20.203Z,3.79
2023-03-11T07:39:21.794Z,4.45
2023-03-11T07:44:23.734Z,4.92
2023-03-11T07:49:25.453Z,5.10
2023-03-11T07:54:28.229Z,6.47
2023-03-11T07:59:31.232Z,7.19
2023-03-11T08:04:33.516Z,7.88
2023-03-11T08:09:36.517Z,9.35
2023-03-11T08:14:38.916Z,8.63
2023-03-11T08:19:41.379Z,8.77
2023-03-11T08:24:44.368Z,7.85
2023-03-11T08:29:46.866Z,8.06
2023-03-11T08:34:49.008Z,8.56
2023-03-11T08:39:51.280Z,7.90
2023-03-11T08:44:53.040Z,8.43
2023-03-11T08:49:54.723Z,8.58
2023-03-11T08:54:56.890Z,6.64
2023-03-11T08:59:58.552Z,6.90
2023-03-11T09:05:00.658Z,7.68
2023-03-11T09:10:04.197Z,7.29
2023-03-11T09:15:07.297Z,8.40
2023-03-11T09:20:13.759Z,10.97
2023-03-11T09:25:15.878Z,11.58
2023-03-11T09:30:18.278Z,9.74
2023-03-11T09:35:19.854Z,7.44
2023-03-11T09:40:24.831Z,8.02
2023-03-11T09:45:35.291Z,7.51
2023-03-11T09:50:53.737Z,8.21
2023-03-11T09:55:57.512Z,9.12
2023-03-11T10:00:59.406Z,8.63
2023-03-11T10:06:07.970Z,8.58
2023-03-11T10:11:32.296Z,8.92
2023-03-11T10:16:37.034Z,8.15
2023-03-11T10:21:57.920Z,8.03
2023-03-11T10:27:03.557Z,7.03
2023-03-11T10:32:36.478Z,7.50
2023-03-11T10:37:49.823Z,9.35
2023-03-11T10:42:55.789Z,9.10
2023-03-11T10:48:25.767Z,9.95
2023-03-11T10:53:27.538Z,9.97
2023-03-11T10:58:31.072Z,10.13
2023-03-11T11:03:34.519Z,10.44
2023-03-11T11:08:36.458Z,10.52
2023-03-11T11:13:38.053Z,11.47
2023-03-11T11:18:49.169Z,12.21
2023-03-11T11:24:01.283Z,9.96
2023-03-11T11:29:12.249Z,9.61
2023-03-11T11:34:33.921Z,10.34
2023-03-11T11:39:49.546Z,10.29
2023-03-11T11:45:37.337Z,10.24
2023-03-11T11:50:51.417Z,10.07
2023-03-11T11:55:55.006Z,9.76
2023-03-11T12:01:19.681Z,9.92
2023-03-11T12:06:40.018Z,11.20
2023-03-11T12:11:45.125Z,11.45
2023-03-11T12:16:46.571Z,11.03
2023-03-11T12:22:09.465Z,11.90
2023-03-11T12:27:25.495Z,11.16
2023-03-11T12:32:41.949Z,10.93
2023-03-11T12:37:44.609Z,10.52
2023-03-11T12:42:46.248Z,9.19
2023-03-11T12:48:26.192Z,9.38
2023-03-11T12:53:48.693Z,10.27
2023-03-11T12:59:27.205Z,9.49
2023-03-11T13:04:47.924Z,9.18
2023-03-11T13:10:07.484Z,9.18
2023-03-11T13:15:18.392Z,9.85
2023-03-11T13:20:39.344Z,9.94
2023-03-11T13:25:43.696Z,9.47
2023-03-11T13:31:10.757Z,9.46
2023-03-11T13:36:49.973Z,10.08
2023-03-11T13:41:51.854Z,10.51
2023-03-11T13:47:04.462Z,10.88
2023-03-11T13:52:12.877Z,11.29
2023-03-11T13:57:22.011Z,10.83
2023-03-11T14:02:26.817Z,10.53
2023-03-11T14:07:31.733Z,10.42
2023-03-11T14:12:34.371Z,11.17
2023-03-11T14:17:36.248Z,11.39
2023-03-11T14:22:38.444Z,11.03
2023-03-11T14:27:45.345Z,12.26
2023-03-11T14:33:06.948Z,12.08
2023-03-11T14:38:26.896Z,11.52
2023-03-11T14:43:39.732Z,10.83
2023-03-11T14:48:43.306Z,10.19
2023-03-11T14:54:17.713Z,9.55
2023-03-11T14:59:25.632Z,8.79
2023-03-11T15:04:35.879Z,9.24
2023-03-11T15:09:40.879Z,8.61
2023-03-11T15:14:50.485Z,7.97
2023-03-11T15:19:52.119Z,7.75
2023-03-11T15:24:57.680Z,7.77
2023-03-11T15:30:01.051Z,8.45
2023-03-11T15:35:14.962Z,8.42
2023-03-11T15:40:43.964Z,7.91
2023-03-11T15:45:47.030Z,7.70
2023-03-11T15:50:54.870Z,8.24
2023-03-11T15:56:10.254Z,8.78
2023-03-11T16:01:11.844Z,8.16
2023-03-11T16:06:13.358Z,8.49
2023-03-11T16:11:15.870Z,8.27
2023-03-11T16:16:18.104Z,8.24
2023-03-11T16:21:23.116Z,7.89
2023-03-11T16:26:24.716Z,7.46
2023-03-11T16:31:26.394Z,7.52
2023-03-11T16:36:27.984Z,7.55
2023-03-11T16:41:29.531Z,7.40
2023-03-11T16:46:31.054Z,7.84
2023-03-11T16:51:33.239Z,7.42
2023-03-11T16:56:35.178Z,6.90
2023-03-11T17:01:36.871Z,6.39
2023-03-11T17:06:38.392Z,6.01
2023-03-11T17:11:40.128Z,5.81
2023-03-11T17:16:41.789Z,5.59
2023-03-11T17:21:43.370Z,5.65
2023-03-11T17:26:44.882Z,5.37
2023-03-11T17:31:46.550Z,5.10
2023-03-11T17:36:48.611Z,4.78
2023-03-11T17:41:50.849Z,4.78
2023-03-11T17:46:53.896Z,4.78
2023-03-11T17:51:56.665Z,4.35
2023-03-11T17:56:58.521Z,3.89
2023-03-11T18:02:00.440Z,3.74
2023-03-11T18:07:02.037Z,3.73
2023-03-11T18:12:04.001Z,3.49
2023-03-11T18:17:05.957Z,3.00
2023-03-11T18:22:08.149Z,3.11
2023-03-11T18:27:09.660Z,3.08
2023-03-11T18:32:11.249Z,2.94
2023-03-11T18:37:12.938Z,2.75
2023-03-11T18:42:15.328Z,2.59
2023-03-11T18:47:17.310Z,2.62
2023-03-11T18:52:19.148Z,2.72
2023-03-11T18:57:21.009Z,2.45
2023-03-11T19:02:22.526Z,2.35
2023-03-11T19:07:24.837Z,2.39
2023-03-11T19:12:26.386Z,2.10
2023-03-11T19:17:28.008Z,1.94
2023-03-11T19:22:29.541Z,1.61
2023-03-11T19:27:31.811Z,1.41
2023-03-11T19:32:33.787Z,1.51
2023-03-11T19:37:36.006Z,1.57
2023-03-11T19:42:37.516Z,1.57
2023-03-11T19:47:39.092Z,2.17
2023-03-11T19:52:41.179Z,2.25
2023-03-11T19:57:43.460Z,1.75
2023-03-11T20:02:45.496Z,1.50
2023-03-11T20:07:47.259Z,1.34
2023-03-11T20:13:01.482Z,1.28
2023-03-11T20:18:05.386Z,1.26
2023-03-11T20:23:07.729Z,1.17
2023-03-11T20:28:10.406Z,1.25
2023-03-11T20:33:12.144Z,1.21
2023-03-11T20:38:14.125Z,1.23
2023-03-11T20:43:16.151Z,1.51
2023-03-11T20:48:18.102Z,1.14
2023-03-11T20:53:20.345Z,0.98
2023-03-11T20:58:22.181Z,1.20
2023-03-11T21:03:23.948Z,1.18
2023-03-11T21:08:25.911Z,1.18
2023-03-11T21:13:28.191Z,1.22
2023-03-11T21:18:32.133Z,1.22
2023-03-11T21:23:34.989Z,1.08
2023-03-11T21:28:37.199Z,1.26
2023-03-11T21:33:40.955Z,1.22
2023-03-11T21:38:43.396Z,1.15
2023-03-11T21:43:46.389Z,1.05
2023-03-11T21:48:49.208Z,0.91
2023-03-11T21:53:50.887Z,1.11
2023-03-11T21:58:52.554Z,1.19
2023-03-11T22:03:54.523Z,1.10
2023-03-11T22:08:56.859Z,1.10
2023-03-11T22:13:59.253Z,0.98
2023-03-11T22:19:01.177Z,1.07
2023-03-11T22:24:02.878Z,1.25
2023-03-11T22:29:07.808Z,1.34
2023-03-11T22:34:10.344Z,1.34
2023-03-11T22:39:11.926Z,1.33
2023-03-11T22:44:13.661Z,1.37
2023-03-11T22:49:15.455Z,1.33
2023-03-11T22:54:17.522Z,1.34
2023-03-11T22:59:19.298Z,1.40
2023-03-11T23:04:21.035Z,1.49
2023-03-11T23:09:22.749Z,1.56
2023-03-11T23:14:37.863Z,1.63
2023-03-11T23:19:45.563Z,1.50
2023-03-11T23:24:47.512Z,1.53
2023-03-11T23:29:49.751Z,1.56
2023-03-11T23:34:52.119Z,1.64
2023-03-11T23:39:54.165Z,1.77
2023-03-11T23:44:56.251Z,1.81
2023-03-11T23:49:57.959Z,1.83
2023-03-11T23:55:00.917Z,1.84
